Cambara, Brazil
Current Conditions -  °F | °C
As of 7:00 PM on Sunday 23 Nov 2014 (Local Time) from SBLO Reporting Station
Scattered Clouds Scattered Clouds  
Wind Chill: 82°   Ceiling: Unl
Heat Index: 85°   Visibility: 6mi
Dew Point: 68°   Wind: 7mph
Humidity: 62%   Direction: 60°ENE
Pressure: 29.88"   Gusts: NA
Location:  23.05°S, 50.07°W
Report Text: SBLO 232100Z 06006KT 9999 SCT030 28/20 Q1012
Loading
Personal Weather Stations






























Interactive Weather Map New forecast layout! Learn more

10-Day Weather Forecast

Advertisements
Track Severe Weather on mobile